createdAt,value
2018-09-21T00:00:17.422Z,60.36
2018-09-21T00:01:17.414Z,59.86
2018-09-21T00:02:17.405Z,59.96
2018-09-21T00:03:17.412Z,60.06
2018-09-21T00:04:17.396Z,60.27
2018-09-21T00:05:17.371Z,59.56
2018-09-21T00:06:17.363Z,60.36
2018-09-21T00:07:17.352Z,60.57
2018-09-21T00:08:17.341Z,60.06
2018-09-21T00:09:17.346Z,60.36
2018-09-21T00:10:17.324Z,60.86
2018-09-21T00:11:17.320Z,60.27
2018-09-21T00:12:17.300Z,60.27
2018-09-21T00:13:17.289Z,60.36
2018-09-21T00:14:17.288Z,60.86
2018-09-21T00:15:17.280Z,60.77
2018-09-21T00:16:17.251Z,60.66
2018-09-21T00:17:17.247Z,60.66
2018-09-21T00:18:17.245Z,60.66
2018-09-21T00:19:17.213Z,60.86
2018-09-21T00:20:17.209Z,60.39
2018-09-21T00:21:17.240Z,60.77
2018-09-21T00:22:17.180Z,60.86
2018-09-21T00:23:17.169Z,60.69
2018-09-21T00:24:17.179Z,61.17
2018-09-21T00:25:17.149Z,61.30
2018-09-21T00:26:17.141Z,61.10
2018-09-21T00:27:17.131Z,61.19
2018-09-21T00:28:17.139Z,60.97
2018-09-21T00:29:17.119Z,61.67
2018-09-21T00:30:17.088Z,61.50
2018-09-21T00:31:17.075Z,61.70
2018-09-21T00:32:17.073Z,61.80
2018-09-21T00:33:17.057Z,61.60
2018-09-21T00:34:17.075Z,61.70
2018-09-21T00:35:17.084Z,61.87
2018-09-21T00:36:17.019Z,61.87
2018-09-21T00:37:17.010Z,61.60
2018-09-21T00:38:17.003Z,61.57
2018-09-21T00:39:17.000Z,61.77
2018-09-21T00:40:16.983Z,61.19
2018-09-21T00:41:16.991Z,61.17
2018-09-21T00:42:16.964Z,61.67
2018-09-21T00:43:16.972Z,61.70
2018-09-21T00:44:16.939Z,61.67
2018-09-21T00:45:16.980Z,61.90
2018-09-21T00:46:16.927Z,62.07
2018-09-21T00:47:16.923Z,61.77
2018-09-21T00:48:16.896Z,61.60
2018-09-21T00:49:16.896Z,61.60
2018-09-21T00:50:16.865Z,62.00
2018-09-21T00:51:16.852Z,62.30
2018-09-21T00:52:16.851Z,62.07
2018-09-21T00:53:16.847Z,61.90
2018-09-21T00:54:16.855Z,62.20
2018-09-21T00:55:16.809Z,62.00
2018-09-21T00:56:16.798Z,62.00
2018-09-21T00:57:16.809Z,62.10
2018-09-21T00:58:16.789Z,62.30
2018-09-21T00:59:16.795Z,61.90
2018-09-21T01:00:16.776Z,62.10
2018-09-21T01:01:16.744Z,62.00
2018-09-21T01:02:16.734Z,61.90
2018-09-21T01:03:16.717Z,61.90
2018-09-21T01:04:16.710Z,61.80
2018-09-21T01:05:16.704Z,62.30
2018-09-21T01:06:16.702Z,62.70
2018-09-21T01:07:16.681Z,62.50
2018-09-21T01:08:16.660Z,62.50
2018-09-21T01:09:16.668Z,62.60
2018-09-21T01:10:16.664Z,63.10
2018-09-21T01:11:16.638Z,62.30
2018-09-21T01:12:16.627Z,63.20
2018-09-21T01:13:16.610Z,63.60
2018-09-21T01:14:16.596Z,63.40
2018-09-21T01:15:16.592Z,62.90
2018-09-21T01:16:16.571Z,62.90
2018-09-21T01:17:16.571Z,63.10
2018-09-21T01:18:16.557Z,63.31
2018-09-21T01:19:16.559Z,63.60
2018-09-21T01:20:16.569Z,63.50
2018-09-21T01:21:16.533Z,63.50
2018-09-21T01:22:16.506Z,63.50
2018-09-21T01:23:16.495Z,63.31
2018-09-21T01:24:16.507Z,63.70
2018-09-21T01:25:16.490Z,63.60
2018-09-21T01:26:16.485Z,63.40
2018-09-21T01:27:16.462Z,63.70
2018-09-21T01:28:16.438Z,63.10
2018-09-21T01:29:16.440Z,63.20
2018-09-21T01:30:16.430Z,63.31
2018-09-21T01:31:16.411Z,63.81
2018-09-21T01:32:16.402Z,64.01
2018-09-21T01:33:16.403Z,63.60
2018-09-21T01:34:16.414Z,64.21
2018-09-21T01:35:16.357Z,63.81
2018-09-21T01:36:16.349Z,63.81
2018-09-21T01:37:16.355Z,63.50
2018-09-21T01:38:16.329Z,64.01
2018-09-21T01:39:16.321Z,64.21
2018-09-21T01:40:16.307Z,63.60
2018-09-21T01:41:16.308Z,63.81
2018-09-21T01:42:16.290Z,64.11
2018-09-21T01:43:16.301Z,63.20
2018-09-21T01:44:16.266Z,64.11
2018-09-21T01:45:16.252Z,63.90
2018-09-21T01:46:16.237Z,63.81
2018-09-21T01:47:16.260Z,64.21
2018-09-21T01:48:16.229Z,64.71
2018-09-21T01:49:16.210Z,64.21
2018-09-21T01:50:16.259Z,63.70
2018-09-21T01:51:16.190Z,64.40
2018-09-21T01:52:16.180Z,64.01
2018-09-21T01:53:16.173Z,64.51
2018-09-21T01:54:16.182Z,63.40
2018-09-21T01:55:16.133Z,64.31
2018-09-21T01:56:16.165Z,63.90
2018-09-21T01:57:16.126Z,64.14
2018-09-21T01:58:16.130Z,64.54
2018-09-21T01:59:16.094Z,63.93
2018-09-21T02:00:16.133Z,64.40
2018-09-21T02:01:16.076Z,64.61
2018-09-21T02:02:16.081Z,64.94
2018-09-21T02:03:16.058Z,64.40
2018-09-21T02:04:16.055Z,64.84
2018-09-21T02:05:16.037Z,64.64
2018-09-21T02:06:16.018Z,64.71
2018-09-21T02:07:16.004Z,64.54
2018-09-21T02:08:16.008Z,64.11
2018-09-21T02:09:15.989Z,64.54
2018-09-21T02:10:15.993Z,64.51
2018-09-21T02:11:15.976Z,64.84
2018-09-21T02:12:15.950Z,64.74
2018-09-21T02:13:15.958Z,64.21
2018-09-21T02:14:15.947Z,64.81
2018-09-21T02:15:15.926Z,64.14
2018-09-21T02:16:15.938Z,64.14
2018-09-21T02:17:15.923Z,64.31
2018-09-21T02:18:15.902Z,64.11
2018-09-21T02:19:15.923Z,64.31
2018-09-21T02:20:15.866Z,64.01
2018-09-21T02:21:15.852Z,64.61
2018-09-21T02:22:15.855Z,64.40
2018-09-21T02:23:15.835Z,64.31
2018-09-21T02:24:15.830Z,64.51
2018-09-21T02:25:15.850Z,64.43
2018-09-21T02:26:15.799Z,64.74
2018-09-21T02:27:15.792Z,64.24
2018-09-21T02:28:15.824Z,64.14
2018-09-21T02:29:15.826Z,64.74
2018-09-21T02:30:15.759Z,64.94
2018-09-21T02:31:15.769Z,64.54
2018-09-21T02:32:15.746Z,64.64
2018-09-21T02:33:15.791Z,64.84
2018-09-21T02:34:15.735Z,64.94
2018-09-21T02:35:15.705Z,64.43
2018-09-21T02:36:15.693Z,64.64
2018-09-21T02:37:15.684Z,65.04
2018-09-21T02:38:15.664Z,65.04
2018-09-21T02:39:15.677Z,64.43
2018-09-21T02:40:15.659Z,64.74
2018-09-21T02:41:15.679Z,65.24
2018-09-21T02:42:15.641Z,65.44
2018-09-21T02:43:15.616Z,65.44
2018-09-21T02:44:15.608Z,65.34
2018-09-21T02:45:15.600Z,65.14
2018-09-21T02:46:15.609Z,65.24
2018-09-21T02:47:15.580Z,64.74
2018-09-21T02:48:15.566Z,64.84
2018-09-21T02:49:15.590Z,65.34
2018-09-21T02:50:15.549Z,65.44
2018-09-21T02:51:15.534Z,64.94
2018-09-21T02:52:15.514Z,65.54
2018-09-21T02:53:15.502Z,65.37
2018-09-21T02:54:15.499Z,65.44
2018-09-21T02:55:15.508Z,65.34
2018-09-21T02:56:15.490Z,65.57
2018-09-21T02:57:15.485Z,65.07
2018-09-21T02:58:15.457Z,65.47
2018-09-21T02:59:15.456Z,65.17
2018-09-21T03:00:15.517Z,64.67
2018-09-21T03:01:15.424Z,65.14
2018-09-21T03:02:15.415Z,65.47
2018-09-21T03:03:15.398Z,65.54
2018-09-21T03:04:15.394Z,65.44
2018-09-21T03:05:15.438Z,65.54
2018-09-21T03:06:15.373Z,64.64
2018-09-21T03:07:15.364Z,64.84
2018-09-21T03:08:15.374Z,64.24
2018-09-21T03:09:15.377Z,65.34
2018-09-21T03:10:15.322Z,65.34
2018-09-21T03:11:15.311Z,65.34
2018-09-21T03:12:15.314Z,64.67
2018-09-21T03:13:15.386Z,65.57
2018-09-21T03:14:15.290Z,65.37
2018-09-21T03:15:15.313Z,65.34
2018-09-21T03:16:15.258Z,65.27
2018-09-21T03:17:15.250Z,65.14
2018-09-21T03:18:15.264Z,65.97
2018-09-21T03:19:15.229Z,65.07
2018-09-21T03:20:15.223Z,65.57
2018-09-21T03:21:15.239Z,65.44
2018-09-21T03:22:15.189Z,65.17
2018-09-21T03:23:15.182Z,65.37
2018-09-21T03:24:15.176Z,65.37
2018-09-21T03:25:15.160Z,65.17
2018-09-21T03:26:15.171Z,65.37
2018-09-21T03:27:15.159Z,65.27
2018-09-21T03:28:15.145Z,65.07
2018-09-21T03:29:15.121Z,65.07
2018-09-21T03:30:15.103Z,65.67
2018-09-21T03:31:15.095Z,65.67
2018-09-21T03:32:15.105Z,64.67
2018-09-21T03:33:15.105Z,65.17
2018-09-21T03:34:15.063Z,64.67
2018-09-21T03:35:15.091Z,65.57
2018-09-21T03:36:15.040Z,65.07
2018-09-21T03:37:15.027Z,65.47
2018-09-21T03:38:15.064Z,65.07
2018-09-21T03:39:15.016Z,65.57
2018-09-21T03:40:14.999Z,65.67
2018-09-21T03:41:14.997Z,65.47
2018-09-21T03:42:14.971Z,64.47
2018-09-21T03:43:14.964Z,64.67
2018-09-21T03:44:15.004Z,64.77
2018-09-21T03:45:14.945Z,65.27
2018-09-21T03:46:14.946Z,65.57
2018-09-21T03:47:14.926Z,65.67
2018-09-21T03:48:14.921Z,65.07
2018-09-21T03:49:14.896Z,64.27
2018-09-21T03:50:14.891Z,65.27
2018-09-21T03:51:14.924Z,65.07
2018-09-21T03:52:14.866Z,65.37
2018-09-21T03:53:14.869Z,65.07
2018-09-21T03:54:14.841Z,65.27
2018-09-21T03:55:14.836Z,65.07
2018-09-21T03:56:14.822Z,65.41
2018-09-21T03:57:14.819Z,65.37
2018-09-21T03:58:14.832Z,65.10
2018-09-21T03:59:14.791Z,65.57
2018-09-21T04:00:14.779Z,65.30
2018-09-21T04:01:14.829Z,65.27
2018-09-21T04:02:14.769Z,65.41
2018-09-21T04:03:14.754Z,64.90
2018-09-21T04:04:14.752Z,65.27
2018-09-21T04:05:14.731Z,65.50
2018-09-21T04:06:14.718Z,65.27
2018-09-21T04:07:14.725Z,65.10
2018-09-21T04:08:14.701Z,65.37
2018-09-21T04:09:14.678Z,65.91
2018-09-21T04:10:14.683Z,64.60
2018-09-21T04:11:14.667Z,65.47
2018-09-21T04:12:14.659Z,65.60
2018-09-21T04:13:14.659Z,65.37
2018-09-21T04:14:14.673Z,64.80
2018-09-21T04:15:14.616Z,65.17
2018-09-21T04:16:14.604Z,65.30
2018-09-21T04:17:14.596Z,65.27
2018-09-21T04:18:14.592Z,65.50
2018-09-21T04:19:14.592Z,64.60
2018-09-21T04:20:14.571Z,64.67
2018-09-21T04:21:14.560Z,64.87
2018-09-21T04:22:14.568Z,65.27
2018-09-21T04:23:14.639Z,65.60
2018-09-21T04:24:14.571Z,65.30
2018-09-21T04:25:14.516Z,65.41
2018-09-21T04:26:14.498Z,65.41
2018-09-21T04:27:14.502Z,65.47
2018-09-21T04:28:14.477Z,65.50
2018-09-21T04:29:14.466Z,65.10
2018-09-21T04:30:14.480Z,65.17
2018-09-21T04:31:14.596Z,65.20
2018-09-21T04:32:14.458Z,65.91
2018-09-21T04:33:14.444Z,64.90
2018-09-21T04:34:14.431Z,66.00
2018-09-21T04:35:14.420Z,65.91
2018-09-21T04:36:14.485Z,65.80
2018-09-21T04:37:14.392Z,65.70
2018-09-21T04:38:14.364Z,65.00
2018-09-21T04:39:14.356Z,64.90
2018-09-21T04:40:14.365Z,65.20
2018-09-21T04:41:14.367Z,65.30
2018-09-21T04:42:14.330Z,64.40
2018-09-21T04:43:14.315Z,65.60
2018-09-21T04:44:14.307Z,65.41
2018-09-21T04:45:14.300Z,65.97
2018-09-21T04:46:14.290Z,65.10
2018-09-21T04:47:14.274Z,65.27
2018-09-21T04:48:14.318Z,65.10
2018-09-21T04:49:14.247Z,65.60
2018-09-21T04:50:14.251Z,64.67
2018-09-21T04:51:14.245Z,64.47
2018-09-21T04:52:14.220Z,64.27
2018-09-21T04:53:14.227Z,64.97
2018-09-21T04:54:14.221Z,64.67
2018-09-21T04:55:14.186Z,64.77
2018-09-21T04:56:14.177Z,64.34
2018-09-21T04:57:14.182Z,63.76
2018-09-21T04:58:14.149Z,64.04
2018-09-21T04:59:14.172Z,63.50
2018-09-21T05:00:14.141Z,63.60
2018-09-21T05:01:14.115Z,62.77
2018-09-21T05:02:14.113Z,62.37
2018-09-21T05:03:14.121Z,62.54
2018-09-21T05:04:14.101Z,61.84
2018-09-21T05:05:14.080Z,62.14
2018-09-21T05:06:14.061Z,61.94
2018-09-21T05:07:14.053Z,61.41
2018-09-21T05:08:14.059Z,61.41
2018-09-21T05:09:14.038Z,61.01
2018-09-21T05:10:14.021Z,61.01
2018-09-21T05:11:14.029Z,60.78
2018-09-21T05:12:13.997Z,60.88
2018-09-21T05:13:13.993Z,60.78
2018-09-21T05:14:13.982Z,60.78
2018-09-21T05:15:13.971Z,60.88
2018-09-21T05:16:13.957Z,60.68
2018-09-21T05:17:13.963Z,60.68
2018-09-21T05:18:13.928Z,60.68
2018-09-21T05:19:13.926Z,60.55
2018-09-21T05:20:13.910Z,60.45
2018-09-21T05:21:13.897Z,60.75
2018-09-21T05:22:13.893Z,60.35
2018-09-21T05:23:13.897Z,60.45
2018-09-21T05:24:13.870Z,60.55
2018-09-21T05:25:13.851Z,60.65
2018-09-21T05:26:13.850Z,60.75
2018-09-21T05:27:13.835Z,60.55
2018-09-21T05:28:13.822Z,60.85
2018-09-21T05:29:13.825Z,60.95
2018-09-21T05:30:13.796Z,61.05
2018-09-21T05:31:13.786Z,60.82
2018-09-21T05:32:13.777Z,60.55
2018-09-21T05:33:13.761Z,60.55
2018-09-21T05:34:13.780Z,60.75
2018-09-21T05:35:13.848Z,60.85
2018-09-21T05:36:13.754Z,60.95
2018-09-21T05:37:13.736Z,60.65
2018-09-21T05:38:13.708Z,60.62
2018-09-21T05:39:13.699Z,60.92
2018-09-21T05:40:13.705Z,60.32
2018-09-21T05:41:13.689Z,61.05
2018-09-21T05:42:13.666Z,60.75
2018-09-21T05:43:13.655Z,60.95
2018-09-21T05:44:13.644Z,60.92
2018-09-21T05:45:13.647Z,60.95
2018-09-21T05:46:13.652Z,61.02
2018-09-21T05:47:13.625Z,61.12
2018-09-21T05:48:13.603Z,61.02
2018-09-21T05:49:13.596Z,61.12
2018-09-21T05:50:13.579Z,61.12
2018-09-21T05:51:13.578Z,61.02
2018-09-21T05:52:13.557Z,61.02
2018-09-21T05:53:13.542Z,61.02
2018-09-21T05:54:13.545Z,61.45
2018-09-21T05:55:13.537Z,61.12
2018-09-21T05:56:13.584Z,61.55
2018-09-21T05:57:13.501Z,61.62
2018-09-21T05:58:13.498Z,61.35
2018-09-21T05:59:13.505Z,61.65
2018-09-21T06:00:13.483Z,61.65
2018-09-21T06:01:13.467Z,61.65
2018-09-21T06:02:13.494Z,61.85
2018-09-21T06:03:13.440Z,61.72
2018-09-21T06:04:13.461Z,61.72
2018-09-21T06:05:13.429Z,61.75
2018-09-21T06:06:13.453Z,61.92
2018-09-21T06:07:13.396Z,61.85
2018-09-21T06:08:13.405Z,61.65
2018-09-21T06:09:13.403Z,61.85
2018-09-21T06:10:13.390Z,61.95
2018-09-21T06:11:13.372Z,61.65
2018-09-21T06:12:13.356Z,62.05
2018-09-21T06:13:13.346Z,62.25
2018-09-21T06:14:13.322Z,62.55
2018-09-21T06:15:13.332Z,62.45
2018-09-21T06:16:13.315Z,62.45
2018-09-21T06:17:13.287Z,62.35
2018-09-21T06:18:13.295Z,62.55
2018-09-21T06:19:13.296Z,62.55
2018-09-21T06:20:13.267Z,62.35
2018-09-21T06:21:13.323Z,61.95
2018-09-21T06:22:13.236Z,62.35
2018-09-21T06:23:13.222Z,62.55
2018-09-21T06:24:13.223Z,62.75
2018-09-21T06:25:13.238Z,62.65
2018-09-21T06:26:13.194Z,62.65
2018-09-21T06:27:13.178Z,62.35
2018-09-21T06:28:13.163Z,62.65
2018-09-21T06:29:13.166Z,62.35
2018-09-21T06:30:13.153Z,63.15
2018-09-21T06:31:14.125Z,62.65
2018-09-21T06:32:13.129Z,62.52
2018-09-21T06:33:13.146Z,62.85
2018-09-21T06:34:13.125Z,63.25
2018-09-21T06:35:13.088Z,62.62
2018-09-21T06:36:13.138Z,62.92
2018-09-21T06:37:13.080Z,62.72
2018-09-21T06:38:13.058Z,63.32
2018-09-21T06:39:13.087Z,63.22
2018-09-21T06:40:13.040Z,62.82
2018-09-21T06:41:13.026Z,62.72
2018-09-21T06:42:13.014Z,62.92
2018-09-21T06:43:13.009Z,62.32
2018-09-21T06:44:12.999Z,62.12
2018-09-21T06:45:13.052Z,62.62
2018-09-21T06:46:12.971Z,62.12
2018-09-21T06:47:12.956Z,61.72
2018-09-21T06:48:12.942Z,61.32
2018-09-21T06:49:12.946Z,61.02
2018-09-21T06:50:12.931Z,60.82
2018-09-21T06:51:12.918Z,60.42
2018-09-21T06:52:12.908Z,60.32
2018-09-21T06:53:12.890Z,60.22
2018-09-21T06:54:12.891Z,59.22
2018-09-21T06:55:12.874Z,58.12
2018-09-21T06:56:12.874Z,58.52
2018-09-21T06:57:12.886Z,58.09
2018-09-21T06:58:12.839Z,57.72
2018-09-21T06:59:12.840Z,57.22
2018-09-21T07:00:12.813Z,56.82
2018-09-21T07:01:12.838Z,57.02
2018-09-21T07:02:12.791Z,56.32
2018-09-21T07:03:12.806Z,56.89
2018-09-21T07:04:12.780Z,57.32
2018-09-21T07:05:12.768Z,56.42
2018-09-21T07:06:12.752Z,55.52
2018-09-21T07:07:12.736Z,55.72
2018-09-21T07:08:12.736Z,56.42
2018-09-21T07:09:12.764Z,55.72
2018-09-21T07:10:12.729Z,56.02
2018-09-21T07:11:12.705Z,55.12
2018-09-21T07:12:12.678Z,55.32
2018-09-21T07:13:12.683Z,56.02
2018-09-21T07:14:12.659Z,55.22
2018-09-21T07:15:12.655Z,55.82
2018-09-21T07:16:12.655Z,56.22
2018-09-21T07:17:12.634Z,55.15
2018-09-21T07:18:12.618Z,55.32
2018-09-21T07:19:12.620Z,54.92
2018-09-21T07:20:12.591Z,55.12
2018-09-21T07:21:12.584Z,54.62
2018-09-21T07:22:12.580Z,54.62
2018-09-21T07:23:12.595Z,55.02
2018-09-21T07:24:12.564Z,54.22
2018-09-21T07:25:12.536Z,54.82
2018-09-21T07:26:12.532Z,55.32
2018-09-21T07:27:12.520Z,55.02
2018-09-21T07:28:12.511Z,54.62
2018-09-21T07:29:12.546Z,54.05
2018-09-21T07:30:12.488Z,54.62
2018-09-21T07:31:12.501Z,54.92
2018-09-21T07:32:12.461Z,55.22
2018-09-21T07:33:12.459Z,54.92
2018-09-21T07:34:12.456Z,55.24
2018-09-21T07:35:12.432Z,54.92
2018-09-21T07:36:12.430Z,54.22
2018-09-21T07:37:12.413Z,54.32
2018-09-21T07:38:12.398Z,54.44
2018-09-21T07:39:12.397Z,54.32
2018-09-21T07:40:12.370Z,53.92
2018-09-21T07:41:12.368Z,54.32
2018-09-21T07:42:12.371Z,54.72
2018-09-21T07:43:12.386Z,54.14
2018-09-21T07:44:12.344Z,54.42
2018-09-21T07:45:12.318Z,53.92
2018-09-21T07:46:12.319Z,54.02
2018-09-21T07:47:12.298Z,54.42
2018-09-21T07:48:12.310Z,54.12
2018-09-21T07:49:12.284Z,54.52
2018-09-21T07:50:12.286Z,54.02
2018-09-21T07:51:12.252Z,54.22
2018-09-21T07:52:12.238Z,54.32
2018-09-21T07:53:12.240Z,54.22
2018-09-21T07:54:12.275Z,54.82
2018-09-21T07:55:12.223Z,54.32
2018-09-21T07:56:12.207Z,54.82
2018-09-21T07:57:12.203Z,54.85
2018-09-21T07:58:12.203Z,54.82
2018-09-21T07:59:12.193Z,55.35
2018-09-21T08:00:12.160Z,54.82
2018-09-21T08:01:12.156Z,54.85
2018-09-21T08:02:12.175Z,55.35
2018-09-21T08:03:12.127Z,55.42
2018-09-21T08:04:12.111Z,55.15
2018-09-21T08:05:12.106Z,55.24
2018-09-21T08:06:12.102Z,55.15
2018-09-21T08:07:12.187Z,55.74
2018-09-21T08:08:12.084Z,55.65
2018-09-21T08:09:12.069Z,54.94
2018-09-21T08:10:12.050Z,55.85
2018-09-21T08:11:12.063Z,55.44
2018-09-21T08:12:12.044Z,55.65
2018-09-21T08:13:12.017Z,54.94
2018-09-21T08:14:12.023Z,55.85
2018-09-21T08:15:11.991Z,55.15
2018-09-21T08:16:11.987Z,56.05
2018-09-21T08:17:11.998Z,56.24
2018-09-21T08:18:11.956Z,55.05
2018-09-21T08:19:11.963Z,55.65
2018-09-21T08:20:11.943Z,55.35
2018-09-21T08:21:11.938Z,55.65
2018-09-21T08:22:11.936Z,55.15
2018-09-21T08:23:11.901Z,55.05
2018-09-21T08:24:11.907Z,55.85
2018-09-21T08:25:12.037Z,55.72
2018-09-21T08:26:11.872Z,55.85
2018-09-21T08:27:11.868Z,55.85
2018-09-21T08:28:12.054Z,55.72
2018-09-21T08:29:11.833Z,55.35
2018-09-21T08:30:11.849Z,56.12
2018-09-21T08:31:11.819Z,55.94
2018-09-21T08:32:11.858Z,55.82
2018-09-21T08:33:11.861Z,55.12
2018-09-21T08:34:11.794Z,55.82
2018-09-21T08:35:11.790Z,55.12
2018-09-21T08:36:11.756Z,55.62
2018-09-21T08:37:11.781Z,55.32
2018-09-21T08:38:11.779Z,54.79
2018-09-21T08:39:11.729Z,54.62
2018-09-21T08:40:11.746Z,55.29
2018-09-21T08:41:11.710Z,55.09
2018-09-21T08:42:11.714Z,54.69
2018-09-21T08:43:11.685Z,54.69
2018-09-21T08:44:11.667Z,54.69
2018-09-21T08:45:11.682Z,54.79
2018-09-21T08:46:11.663Z,55.19
2018-09-21T08:47:11.653Z,54.69
2018-09-21T08:48:11.628Z,54.90
2018-09-21T08:49:11.612Z,55.19
2018-09-21T08:50:11.605Z,54.79
2018-09-21T08:51:11.609Z,55.19
2018-09-21T08:52:11.602Z,55.09
2018-09-21T08:53:11.607Z,55.09
2018-09-21T08:54:11.566Z,55.40
2018-09-21T08:55:11.549Z,55.09
2018-09-21T08:56:11.548Z,55.40
2018-09-21T08:57:11.529Z,55.40
2018-09-21T08:58:11.543Z,55.09
2018-09-21T08:59:11.520Z,55.62
2018-09-21T09:00:11.498Z,55.89
2018-09-21T09:01:11.503Z,55.09
2018-09-21T09:02:11.482Z,55.89
2018-09-21T09:03:11.592Z,55.69
2018-09-21T09:04:11.480Z,55.19
2018-09-21T09:05:11.444Z,54.90
2018-09-21T09:06:11.457Z,55.69
2018-09-21T09:07:11.420Z,55.79
2018-09-21T09:08:11.417Z,55.22
2018-09-21T09:09:11.411Z,55.12
2018-09-21T09:10:11.386Z,55.22
2018-09-21T09:11:11.378Z,55.72
2018-09-21T09:12:11.363Z,56.02
2018-09-21T09:13:11.377Z,55.49
2018-09-21T09:14:11.358Z,56.12
2018-09-21T09:15:11.346Z,55.62
2018-09-21T09:16:11.332Z,56.02
2018-09-21T09:17:11.316Z,55.59
2018-09-21T09:18:11.302Z,55.82
2018-09-21T09:19:11.312Z,56.12
2018-09-21T09:20:11.306Z,56.02
2018-09-21T09:21:11.263Z,55.82
2018-09-21T09:22:11.250Z,55.92
2018-09-21T09:23:11.285Z,56.02
2018-09-21T09:24:11.233Z,56.12
2018-09-21T09:25:11.233Z,56.02
2018-09-21T09:26:11.256Z,55.99
2018-09-21T09:27:11.195Z,56.02
2018-09-21T09:28:11.203Z,56.22
2018-09-21T09:29:11.207Z,56.02
2018-09-21T09:30:11.230Z,56.52
2018-09-21T09:31:11.159Z,55.52
2018-09-21T09:32:11.178Z,56.42
2018-09-21T09:33:11.131Z,56.29
2018-09-21T09:34:11.127Z,55.82
2018-09-21T09:35:11.114Z,56.52
2018-09-21T09:36:11.111Z,57.02
2018-09-21T09:37:11.089Z,57.52
2018-09-21T09:38:11.083Z,58.55
2018-09-21T09:39:11.063Z,58.78
2018-09-21T09:40:11.081Z,59.50
2018-09-21T09:41:11.080Z,60.86
2018-09-21T09:42:11.028Z,62.10
2018-09-21T09:43:11.066Z,62.43
2018-09-21T09:44:11.017Z,62.63
2018-09-21T09:45:11.011Z,62.83
2018-09-21T09:46:10.991Z,64.40
2018-09-21T09:47:10.981Z,64.93
2018-09-21T09:48:10.968Z,66.07
2018-09-21T09:49:11.018Z,68.31
2018-09-21T09:50:10.964Z,69.05
2018-09-21T09:51:10.959Z,68.65
2018-09-21T09:52:10.941Z,70.09
2018-09-21T09:53:10.915Z,70.22
2018-09-21T09:54:10.904Z,69.72
2018-09-21T09:55:10.922Z,71.37
2018-09-21T09:56:10.898Z,70.39
2018-09-21T09:57:10.872Z,72.31
2018-09-21T09:58:10.862Z,72.24
2018-09-21T09:59:10.865Z,72.88
2018-09-21T10:00:10.834Z,74.69
2018-09-21T10:01:10.836Z,73.58
2018-09-21T10:02:10.828Z,74.33
2018-09-21T10:03:10.823Z,74.22
2018-09-21T10:04:10.795Z,75.21
2018-09-21T10:05:10.787Z,75.10
2018-09-21T10:06:10.800Z,75.14
2018-09-21T10:07:10.766Z,74.27
2018-09-21T10:08:10.749Z,76.09
2018-09-21T10:09:10.738Z,75.68
2018-09-21T10:10:10.743Z,76.03
2018-09-21T10:11:10.716Z,76.59
2018-09-21T10:12:10.774Z,76.93
2018-09-21T10:13:10.697Z,77.84
2018-09-21T10:14:10.679Z,75.42
2018-09-21T10:15:10.695Z,77.78
2018-09-21T10:16:10.661Z,79.00
2018-09-21T10:17:10.664Z,78.93
2018-09-21T10:18:10.648Z,78.39
2018-09-21T10:19:10.636Z,78.93
2018-09-21T10:20:10.622Z,80.96
2018-09-21T10:21:10.628Z,80.05
2018-09-21T10:22:10.601Z,80.76
2018-09-21T10:23:10.585Z,81.10
2018-09-21T10:24:10.643Z,80.69
2018-09-21T10:25:10.589Z,79.98
2018-09-21T10:26:10.549Z,79.58
2018-09-21T10:27:10.681Z,81.60
2018-09-21T10:28:10.630Z,81.81
2018-09-21T10:29:10.531Z,81.34
2018-09-21T10:30:10.508Z,81.64
2018-09-21T10:31:10.490Z,80.39
2018-09-21T10:32:10.494Z,79.61
2018-09-21T10:33:10.486Z,80.43
2018-09-21T10:34:10.476Z,80.08
2018-09-21T10:35:10.543Z,79.72
2018-09-21T10:36:10.461Z,79.07
2018-09-21T10:37:10.541Z,77.59
2018-09-21T10:38:10.419Z,77.69
2018-09-21T10:39:10.469Z,76.64
2018-09-21T10:40:10.462Z,77.95
2018-09-21T10:41:10.387Z,76.98
2018-09-21T10:42:10.414Z,77.69
2018-09-21T10:43:10.452Z,79.41
2018-09-21T10:44:10.379Z,79.11
2018-09-21T10:45:10.340Z,78.40
2018-09-21T10:46:10.332Z,78.64
2018-09-21T10:47:10.325Z,77.59
2018-09-21T10:48:10.330Z,77.48
2018-09-21T10:49:10.375Z,78.30
2018-09-21T10:50:10.289Z,78.03
2018-09-21T10:51:10.279Z,78.09
2018-09-21T10:52:10.264Z,78.19
2018-09-21T10:53:10.253Z,76.37
2018-09-21T10:54:10.261Z,77.28
2018-09-21T10:55:10.228Z,75.46
2018-09-21T10:56:10.230Z,76.78
2018-09-21T10:57:10.223Z,77.08
2018-09-21T10:58:10.192Z,77.79
2018-09-21T10:59:10.222Z,77.59
2018-09-21T11:00:10.177Z,76.06
2018-09-21T11:01:10.165Z,77.34
2018-09-21T11:02:10.157Z,75.56
2018-09-21T11:03:10.145Z,75.25
2018-09-21T11:04:10.143Z,75.46
2018-09-21T11:05:10.127Z,73.83
2018-09-21T11:06:10.105Z,75.42
2018-09-21T11:07:10.114Z,75.15
2018-09-21T11:08:10.099Z,75.01
2018-09-21T11:09:10.072Z,77.14
2018-09-21T11:10:10.065Z,75.73
2018-09-21T11:11:10.057Z,74.00
2018-09-21T11:12:10.064Z,74.10
2018-09-21T11:13:10.133Z,73.70
2018-09-21T11:14:10.022Z,73.80
2018-09-21T11:15:10.003Z,74.00
2018-09-21T11:16:10.012Z,72.89
2018-09-21T11:17:09.986Z,73.70
2018-09-21T11:18:09.989Z,75.42
2018-09-21T11:19:09.987Z,72.89
2018-09-21T11:20:09.954Z,73.05
2018-09-21T11:21:09.959Z,73.05
2018-09-21T11:22:09.934Z,73.05
2018-09-21T11:23:09.934Z,72.45
2018-09-21T11:24:09.916Z,70.93
2018-09-21T11:25:09.916Z,72.24
2018-09-21T11:26:09.904Z,71.80
2018-09-21T11:27:09.873Z,71.70
2018-09-21T11:28:09.864Z,71.64
2018-09-21T11:29:09.854Z,72.14
2018-09-21T11:30:09.847Z,73.02
2018-09-21T11:31:09.836Z,72.34
2018-09-21T11:32:09.828Z,72.01
2018-09-21T11:33:09.938Z,71.20
2018-09-21T11:34:09.809Z,71.80
2018-09-21T11:35:09.821Z,72.11
2018-09-21T11:36:09.777Z,71.30
2018-09-21T11:37:09.785Z,70.96
2018-09-21T11:38:09.760Z,70.56
2018-09-21T11:39:09.744Z,71.26
2018-09-21T11:40:09.736Z,70.45
2018-09-21T11:41:09.717Z,70.25
2018-09-21T11:42:09.704Z,70.05
2018-09-21T11:43:09.714Z,70.86
2018-09-21T11:44:09.706Z,69.65
2018-09-21T11:45:09.712Z,70.05
2018-09-21T11:46:09.731Z,70.76
2018-09-21T11:47:09.713Z,69.14
2018-09-21T11:48:09.666Z,70.15
2018-09-21T11:49:09.639Z,71.88
2018-09-21T11:50:09.618Z,70.52
2018-09-21T11:51:09.620Z,69.51
2018-09-21T11:52:09.638Z,67.59
2018-09-21T11:53:09.617Z,69.21
2018-09-21T11:54:09.603Z,68.90
2018-09-21T11:55:09.567Z,68.67
2018-09-21T11:56:09.575Z,68.26
2018-09-21T11:57:09.567Z,67.05
2018-09-21T11:58:09.574Z,67.25
2018-09-21T11:59:09.521Z,66.95
2018-09-21T12:00:09.518Z,67.35
2018-09-21T12:01:09.514Z,66.64
2018-09-21T12:02:09.505Z,66.21
2018-09-21T12:03:09.486Z,66.41
2018-09-21T12:04:09.475Z,66.11
2018-09-21T12:05:09.463Z,64.59
2018-09-21T12:06:09.458Z,65.07
2018-09-21T12:07:09.452Z,66.48
2018-09-21T12:08:09.426Z,64.94
2018-09-21T12:09:09.425Z,64.97
2018-09-21T12:10:09.403Z,65.64
2018-09-21T12:11:09.428Z,64.64
2018-09-21T12:12:09.395Z,64.50
2018-09-21T12:13:09.385Z,64.50
2018-09-21T12:14:09.377Z,63.39
2018-09-21T12:15:09.361Z,64.90
2018-09-21T12:16:09.482Z,64.10
2018-09-21T12:17:09.366Z,63.70
2018-09-21T12:18:09.319Z,63.39
2018-09-21T12:19:09.301Z,64.90
2018-09-21T12:20:09.304Z,63.26
2018-09-21T12:21:09.300Z,64.30
2018-09-21T12:22:09.355Z,63.36
2018-09-21T12:23:09.283Z,65.08
2018-09-21T12:24:09.251Z,64.87
2018-09-21T12:25:09.244Z,63.13
2018-09-21T12:26:09.234Z,63.53
2018-09-21T12:27:09.237Z,62.93
2018-09-21T12:28:09.221Z,62.43
2018-09-21T12:29:09.198Z,63.30
2018-09-21T12:30:09.203Z,62.90
2018-09-21T12:31:09.171Z,63.20
2018-09-21T12:32:09.164Z,61.46
2018-09-21T12:33:09.162Z,61.76
2018-09-21T12:34:09.147Z,61.36
2018-09-21T12:35:09.158Z,61.86
2018-09-21T12:36:09.224Z,61.76
2018-09-21T12:37:09.133Z,61.36
2018-09-21T12:38:09.123Z,61.56
2018-09-21T12:39:09.130Z,61.96
2018-09-21T12:40:09.097Z,62.57
2018-09-21T12:41:09.064Z,61.73
2018-09-21T12:42:09.055Z,61.73
2018-09-21T12:43:09.058Z,60.85
2018-09-21T12:44:09.052Z,61.53
2018-09-21T12:45:09.030Z,61.83
2018-09-21T12:46:09.009Z,60.12
2018-09-21T12:47:09.005Z,61.83
2018-09-21T12:48:09.020Z,61.25
2018-09-21T12:49:08.992Z,61.36
2018-09-21T12:50:08.983Z,61.16
2018-09-21T12:51:08.952Z,61.59
2018-09-21T12:52:08.943Z,61.46